sensor_id;sensor_type;location;lat;lon;timestamp;P1;durP1;ratioP1;P2;durP2;ratioP2
58384;SDS011;44185;47.844;8.966;2023-04-23T00:02:16;7.45;;;4.13;;
58384;SDS011;44185;47.844;8.966;2023-04-23T00:04:45;9.05;;;4.28;;
58384;SDS011;44185;47.844;8.966;2023-04-23T00:07:15;7.63;;;4.05;;
58384;SDS011;44185;47.844;8.966;2023-04-23T00:09:42;8.75;;;4.75;;
58384;SDS011;44185;47.844;8.966;2023-04-23T00:12:10;7.30;;;4.00;;
58384;SDS011;44185;47.844;8.966;2023-04-23T00:14:36;6.68;;;3.90;;
58384;SDS011;44185;47.844;8.966;2023-04-23T00:17:01;8.20;;;4.07;;
58384;SDS011;44185;47.844;8.966;2023-04-23T00:19:28;6.65;;;4.43;;
58384;SDS011;44185;47.844;8.966;2023-04-23T00:21:54;8.40;;;4.68;;
58384;SDS011;44185;47.844;8.966;2023-04-23T00:24:19;6.82;;;4.32;;
58384;SDS011;44185;47.844;8.966;2023-04-23T00:26:45;9.73;;;4.35;;
58384;SDS011;44185;47.844;8.966;2023-04-23T00:29:10;7.13;;;4.43;;
58384;SDS011;44185;47.844;8.966;2023-04-23T00:31:36;7.13;;;3.90;;
58384;SDS011;44185;47.844;8.966;2023-04-23T00:34:01;7.75;;;4.50;;
58384;SDS011;44185;47.844;8.966;2023-04-23T00:36:28;7.88;;;4.53;;
58384;SDS011;44185;47.844;8.966;2023-04-23T00:38:54;9.50;;;5.03;;
58384;SDS011;44185;47.844;8.966;2023-04-23T00:41:19;9.02;;;4.20;;
58384;SDS011;44185;47.844;8.966;2023-04-23T00:43:45;8.30;;;4.18;;
58384;SDS011;44185;47.844;8.966;2023-04-23T00:46:11;7.15;;;4.35;;
58384;SDS011;44185;47.844;8.966;2023-04-23T00:48:36;6.72;;;4.03;;
58384;SDS011;44185;47.844;8.966;2023-04-23T00:51:03;8.80;;;5.32;;
58384;SDS011;44185;47.844;8.966;2023-04-23T00:53:31;4.72;;;3.95;;
58384;SDS011;44185;47.844;8.966;2023-04-23T00:55:56;6.90;;;4.28;;
58384;SDS011;44185;47.844;8.966;2023-04-23T00:58:23;8.27;;;4.35;;
58384;SDS011;44185;47.844;8.966;2023-04-23T01:00:49;8.55;;;4.35;;
58384;SDS011;44185;47.844;8.966;2023-04-23T01:03:15;6.78;;;4.63;;
58384;SDS011;44185;47.844;8.966;2023-04-23T01:05:41;8.07;;;4.28;;
58384;SDS011;44185;47.844;8.966;2023-04-23T01:08:07;9.23;;;4.47;;
58384;SDS011;44185;47.844;8.966;2023-04-23T01:10:35;7.60;;;4.30;;
58384;SDS011;44185;47.844;8.966;2023-04-23T01:13:01;9.45;;;4.32;;
58384;SDS011;44185;47.844;8.966;2023-04-23T01:15:27;8.73;;;4.40;;
58384;SDS011;44185;47.844;8.966;2023-04-23T01:17:53;6.55;;;4.30;;
58384;SDS011;44185;47.844;8.966;2023-04-23T01:20:19;10.18;;;4.30;;
58384;SDS011;44185;47.844;8.966;2023-04-23T01:22:46;8.77;;;4.50;;
58384;SDS011;44185;47.844;8.966;2023-04-23T01:25:11;8.20;;;4.32;;
58384;SDS011;44185;47.844;8.966;2023-04-23T01:27:36;10.48;;;4.93;;
58384;SDS011;44185;47.844;8.966;2023-04-23T01:30:03;8.43;;;4.63;;
58384;SDS011;44185;47.844;8.966;2023-04-23T01:32:29;8.73;;;4.45;;
58384;SDS011;44185;47.844;8.966;2023-04-23T01:34:55;9.65;;;4.80;;
58384;SDS011;44185;47.844;8.966;2023-04-23T01:37:21;8.75;;;4.70;;
58384;SDS011;44185;47.844;8.966;2023-04-23T01:39:49;7.70;;;4.50;;
58384;SDS011;44185;47.844;8.966;2023-04-23T01:42:15;7.22;;;4.45;;
58384;SDS011;44185;47.844;8.966;2023-04-23T01:44:41;10.10;;;5.30;;
58384;SDS011;44185;47.844;8.966;2023-04-23T01:47:06;9.27;;;5.25;;
58384;SDS011;44185;47.844;8.966;2023-04-23T01:49:32;9.23;;;5.05;;
58384;SDS011;44185;47.844;8.966;2023-04-23T01:51:57;8.02;;;4.47;;
58384;SDS011;44185;47.844;8.966;2023-04-23T01:54:23;9.02;;;5.05;;
58384;SDS011;44185;47.844;8.966;2023-04-23T01:56:50;10.65;;;5.18;;
58384;SDS011;44185;47.844;8.966;2023-04-23T01:59:15;7.25;;;4.97;;
58384;SDS011;44185;47.844;8.966;2023-04-23T02:01:41;9.75;;;4.88;;
58384;SDS011;44185;47.844;8.966;2023-04-23T02:04:07;9.02;;;4.68;;
58384;SDS011;44185;47.844;8.966;2023-04-23T02:06:33;8.52;;;5.25;;
58384;SDS011;44185;47.844;8.966;2023-04-23T02:08:59;8.27;;;5.00;;
58384;SDS011;44185;47.844;8.966;2023-04-23T02:11:24;8.20;;;4.88;;
58384;SDS011;44185;47.844;8.966;2023-04-23T02:13:51;6.57;;;4.25;;
58384;SDS011;44185;47.844;8.966;2023-04-23T02:16:16;9.25;;;4.60;;
58384;SDS011;44185;47.844;8.966;2023-04-23T02:18:42;9.20;;;4.43;;
58384;SDS011;44185;47.844;8.966;2023-04-23T02:21:07;7.93;;;3.80;;
58384;SDS011;44185;47.844;8.966;2023-04-23T02:23:32;6.57;;;4.00;;
58384;SDS011;44185;47.844;8.966;2023-04-23T02:25:58;7.47;;;3.90;;
58384;SDS011;44185;47.844;8.966;2023-04-23T02:28:23;6.87;;;4.43;;
58384;SDS011;44185;47.844;8.966;2023-04-23T02:30:50;6.03;;;3.92;;
58384;SDS011;44185;47.844;8.966;2023-04-23T02:33:15;8.68;;;4.22;;
58384;SDS011;44185;47.844;8.966;2023-04-23T02:35:41;8.88;;;4.43;;
58384;SDS011;44185;47.844;8.966;2023-04-23T02:38:06;7.38;;;4.03;;
58384;SDS011;44185;47.844;8.966;2023-04-23T02:40:32;7.35;;;4.80;;
58384;SDS011;44185;47.844;8.966;2023-04-23T02:42:57;8.77;;;4.33;;
58384;SDS011;44185;47.844;8.966;2023-04-23T02:45:23;8.52;;;4.38;;
58384;SDS011;44185;47.844;8.966;2023-04-23T02:47:50;7.78;;;4.20;;
58384;SDS011;44185;47.844;8.966;2023-04-23T02:50:15;6.50;;;3.90;;
58384;SDS011;44185;47.844;8.966;2023-04-23T02:52:41;8.32;;;4.22;;
58384;SDS011;44185;47.844;8.966;2023-04-23T02:55:07;7.50;;;4.53;;
58384;SDS011;44185;47.844;8.966;2023-04-23T02:57:32;8.88;;;4.38;;
58384;SDS011;44185;47.844;8.966;2023-04-23T02:59:58;6.63;;;4.32;;
58384;SDS011;44185;47.844;8.966;2023-04-23T03:02:23;9.50;;;4.43;;
58384;SDS011;44185;47.844;8.966;2023-04-23T03:04:50;8.45;;;4.38;;
58384;SDS011;44185;47.844;8.966;2023-04-23T03:07:15;6.97;;;4.22;;
58384;SDS011;44185;47.844;8.966;2023-04-23T03:09:41;7.57;;;4.28;;
58384;SDS011;44185;47.844;8.966;2023-04-23T03:12:06;9.60;;;4.93;;
58384;SDS011;44185;47.844;8.966;2023-04-23T03:14:32;8.73;;;4.72;;
58384;SDS011;44185;47.844;8.966;2023-04-23T03:16:57;6.10;;;4.18;;
58384;SDS011;44185;47.844;8.966;2023-04-23T03:19:23;8.25;;;4.30;;
58384;SDS011;44185;47.844;8.966;2023-04-23T03:21:50;6.43;;;4.38;;
58384;SDS011;44185;47.844;8.966;2023-04-23T03:24:16;6.65;;;4.45;;
58384;SDS011;44185;47.844;8.966;2023-04-23T03:26:41;9.20;;;4.40;;
58384;SDS011;44185;47.844;8.966;2023-04-23T03:29:07;8.93;;;4.13;;
58384;SDS011;44185;47.844;8.966;2023-04-23T03:31:32;6.95;;;4.25;;
58384;SDS011;44185;47.844;8.966;2023-04-23T03:33:58;5.05;;;3.85;;
58384;SDS011;44185;47.844;8.966;2023-04-23T03:36:23;7.70;;;4.07;;
58384;SDS011;44185;47.844;8.966;2023-04-23T03:38:50;6.82;;;3.72;;
58384;SDS011;44185;47.844;8.966;2023-04-23T03:41:15;7.90;;;3.88;;
58384;SDS011;44185;47.844;8.966;2023-04-23T03:43:41;8.02;;;4.40;;
58384;SDS011;44185;47.844;8.966;2023-04-23T03:46:06;6.78;;;4.05;;
58384;SDS011;44185;47.844;8.966;2023-04-23T03:48:32;6.82;;;4.38;;
58384;SDS011;44185;47.844;8.966;2023-04-23T03:50:57;10.73;;;4.47;;
58384;SDS011;44185;47.844;8.966;2023-04-23T03:53:22;6.47;;;3.83;;
58384;SDS011;44185;47.844;8.966;2023-04-23T03:55:49;5.90;;;3.60;;
58384;SDS011;44185;47.844;8.966;2023-04-23T03:58:15;5.63;;;3.22;;
58384;SDS011;44185;47.844;8.966;2023-04-23T04:00:41;4.60;;;3.35;;
58384;SDS011;44185;47.844;8.966;2023-04-23T04:03:06;4.82;;;3.17;;
58384;SDS011;44185;47.844;8.966;2023-04-23T04:05:32;5.22;;;3.50;;
58384;SDS011;44185;47.844;8.966;2023-04-23T04:07:57;7.00;;;3.45;;
58384;SDS011;44185;47.844;8.966;2023-04-23T04:10:22;5.47;;;3.28;;
58384;SDS011;44185;47.844;8.966;2023-04-23T04:12:49;4.68;;;3.33;;
58384;SDS011;44185;47.844;8.966;2023-04-23T04:15:15;6.07;;;3.20;;
58384;SDS011;44185;47.844;8.966;2023-04-23T04:17:40;3.97;;;3.17;;
58384;SDS011;44185;47.844;8.966;2023-04-23T04:20:06;5.20;;;3.30;;
58384;SDS011;44185;47.844;8.966;2023-04-23T04:22:32;5.93;;;3.05;;
58384;SDS011;44185;47.844;8.966;2023-04-23T04:24:57;4.38;;;3.17;;
58384;SDS011;44185;47.844;8.966;2023-04-23T04:27:23;4.60;;;3.08;;
58384;SDS011;44185;47.844;8.966;2023-04-23T04:29:50;4.55;;;2.97;;
58384;SDS011;44185;47.844;8.966;2023-04-23T04:32:16;4.57;;;3.08;;
58384;SDS011;44185;47.844;8.966;2023-04-23T04:34:41;7.40;;;3.47;;
58384;SDS011;44185;47.844;8.966;2023-04-23T04:37:06;6.10;;;2.90;;
58384;SDS011;44185;47.844;8.966;2023-04-23T04:39:32;5.05;;;3.38;;
58384;SDS011;44185;47.844;8.966;2023-04-23T04:41:57;5.10;;;3.40;;
58384;SDS011;44185;47.844;8.966;2023-04-23T04:44:23;4.32;;;3.20;;
58384;SDS011;44185;47.844;8.966;2023-04-23T04:46:50;3.70;;;2.80;;
58384;SDS011;44185;47.844;8.966;2023-04-23T04:49:15;4.50;;;2.88;;
58384;SDS011;44185;47.844;8.966;2023-04-23T04:51:41;3.75;;;2.70;;
58384;SDS011;44185;47.844;8.966;2023-04-23T04:54:06;2.67;;;2.38;;
58384;SDS011;44185;47.844;8.966;2023-04-23T04:56:32;3.50;;;2.38;;
58384;SDS011;44185;47.844;8.966;2023-04-23T04:58:58;3.80;;;2.40;;
58384;SDS011;44185;47.844;8.966;2023-04-23T05:01:23;2.60;;;2.40;;
58384;SDS011;44185;47.844;8.966;2023-04-23T05:03:50;3.00;;;2.50;;
58384;SDS011;44185;47.844;8.966;2023-04-23T05:06:16;3.80;;;2.53;;
58384;SDS011;44185;47.844;8.966;2023-04-23T05:08:42;4.07;;;3.00;;
58384;SDS011;44185;47.844;8.966;2023-04-23T05:11:07;2.90;;;2.50;;
58384;SDS011;44185;47.844;8.966;2023-04-23T05:13:33;3.70;;;2.60;;
58384;SDS011;44185;47.844;8.966;2023-04-23T05:15:58;5.40;;;2.70;;
58384;SDS011;44185;47.844;8.966;2023-04-23T05:18:23;3.53;;;2.55;;
58384;SDS011;44185;47.844;8.966;2023-04-23T05:20:50;3.33;;;2.40;;
58384;SDS011;44185;47.844;8.966;2023-04-23T05:23:16;2.92;;;2.30;;
58384;SDS011;44185;47.844;8.966;2023-04-23T05:25:41;3.42;;;2.50;;
58384;SDS011;44185;47.844;8.966;2023-04-23T05:28:06;2.80;;;2.53;;
58384;SDS011;44185;47.844;8.966;2023-04-23T05:30:32;4.65;;;2.70;;
58384;SDS011;44185;47.844;8.966;2023-04-23T05:32:57;5.78;;;2.65;;
58384;SDS011;44185;47.844;8.966;2023-04-23T05:35:23;2.60;;;2.25;;
58384;SDS011;44185;47.844;8.966;2023-04-23T05:37:50;2.75;;;2.40;;
58384;SDS011;44185;47.844;8.966;2023-04-23T05:40:16;2.90;;;2.33;;
58384;SDS011;44185;47.844;8.966;2023-04-23T05:42:41;4.25;;;2.40;;
58384;SDS011;44185;47.844;8.966;2023-04-23T05:45:07;3.58;;;2.55;;
58384;SDS011;44185;47.844;8.966;2023-04-23T05:47:33;3.28;;;2.50;;
58384;SDS011;44185;47.844;8.966;2023-04-23T05:49:59;3.63;;;2.67;;
58384;SDS011;44185;47.844;8.966;2023-04-23T05:52:24;4.38;;;2.60;;
58384;SDS011;44185;47.844;8.966;2023-04-23T05:54:51;2.72;;;2.50;;
58384;SDS011;44185;47.844;8.966;2023-04-23T05:57:16;4.30;;;2.67;;
58384;SDS011;44185;47.844;8.966;2023-04-23T05:59:42;4.55;;;2.47;;
58384;SDS011;44185;47.844;8.966;2023-04-23T06:02:08;3.10;;;2.45;;
58384;SDS011;44185;47.844;8.966;2023-04-23T06:04:34;3.42;;;2.50;;
58384;SDS011;44185;47.844;8.966;2023-04-23T06:07:00;2.88;;;2.35;;
58384;SDS011;44185;47.844;8.966;2023-04-23T06:09:25;3.70;;;2.40;;
58384;SDS011;44185;47.844;8.966;2023-04-23T06:11:52;4.15;;;2.60;;
58384;SDS011;44185;47.844;8.966;2023-04-23T06:14:17;3.30;;;2.40;;
58384;SDS011;44185;47.844;8.966;2023-04-23T06:16:43;3.05;;;2.30;;
58384;SDS011;44185;47.844;8.966;2023-04-23T06:19:08;3.33;;;1.90;;
58384;SDS011;44185;47.844;8.966;2023-04-23T06:21:34;2.47;;;1.50;;
58384;SDS011;44185;47.844;8.966;2023-04-23T06:23:59;2.47;;;1.42;;
58384;SDS011;44185;47.844;8.966;2023-04-23T06:26:24;2.13;;;1.08;;
58384;SDS011;44185;47.844;8.966;2023-04-23T06:28:51;4.43;;;1.55;;
58384;SDS011;44185;47.844;8.966;2023-04-23T06:31:17;1.33;;;0.95;;
58384;SDS011;44185;47.844;8.966;2023-04-23T06:33:42;2.78;;;1.30;;
58384;SDS011;44185;47.844;8.966;2023-04-23T06:36:08;1.98;;;1.42;;
58384;SDS011;44185;47.844;8.966;2023-04-23T06:38:34;2.30;;;1.40;;
58384;SDS011;44185;47.844;8.966;2023-04-23T06:40:59;1.98;;;1.25;;
58384;SDS011;44185;47.844;8.966;2023-04-23T06:43:24;1.20;;;1.08;;
58384;SDS011;44185;47.844;8.966;2023-04-23T06:45:51;1.95;;;1.33;;
58384;SDS011;44185;47.844;8.966;2023-04-23T06:48:17;2.78;;;1.60;;
58384;SDS011;44185;47.844;8.966;2023-04-23T06:50:42;1.80;;;1.70;;
58384;SDS011;44185;47.844;8.966;2023-04-23T06:53:09;1.30;;;1.20;;
58384;SDS011;44185;47.844;8.966;2023-04-23T06:55:34;1.00;;;1.00;;
58384;SDS011;44185;47.844;8.966;2023-04-23T06:58:00;3.35;;;1.45;;
58384;SDS011;44185;47.844;8.966;2023-04-23T07:00:25;1.67;;;1.15;;
58384;SDS011;44185;47.844;8.966;2023-04-23T07:02:52;1.48;;;1.38;;
58384;SDS011;44185;47.844;8.966;2023-04-23T07:05:17;1.25;;;1.15;;
58384;SDS011;44185;47.844;8.966;2023-04-23T07:07:43;3.13;;;1.65;;
58384;SDS011;44185;47.844;8.966;2023-04-23T07:10:09;3.13;;;1.30;;
58384;SDS011;44185;47.844;8.966;2023-04-23T07:12:35;1.30;;;1.20;;
58384;SDS011;44185;47.844;8.966;2023-04-23T07:15:01;1.40;;;1.30;;
58384;SDS011;44185;47.844;8.966;2023-04-23T07:17:27;1.45;;;1.35;;
58384;SDS011;44185;47.844;8.966;2023-04-23T07:19:53;1.45;;;1.30;;
58384;SDS011;44185;47.844;8.966;2023-04-23T07:22:19;2.22;;;1.48;;
58384;SDS011;44185;47.844;8.966;2023-04-23T07:24:44;2.30;;;2.10;;
58384;SDS011;44185;47.844;8.966;2023-04-23T07:27:10;2.13;;;1.63;;
58384;SDS011;44185;47.844;8.966;2023-04-23T07:29:35;1.07;;;1.00;;
58384;SDS011;44185;47.844;8.966;2023-04-23T07:32:01;2.10;;;1.27;;
58384;SDS011;44185;47.844;8.966;2023-04-23T07:34:26;3.33;;;1.27;;
58384;SDS011;44185;47.844;8.966;2023-04-23T07:36:53;1.90;;;1.33;;
58384;SDS011;44185;47.844;8.966;2023-04-23T07:39:18;1.35;;;0.95;;
58384;SDS011;44185;47.844;8.966;2023-04-23T07:41:44;1.42;;;1.30;;
58384;SDS011;44185;47.844;8.966;2023-04-23T07:44:09;1.27;;;1.17;;
58384;SDS011;44185;47.844;8.966;2023-04-23T07:46:35;1.20;;;1.15;;
58384;SDS011;44185;47.844;8.966;2023-04-23T07:49:00;0.95;;;0.95;;
58384;SDS011;44185;47.844;8.966;2023-04-23T07:51:25;1.50;;;1.20;;
58384;SDS011;44185;47.844;8.966;2023-04-23T07:53:52;1.45;;;1.35;;
58384;SDS011;44185;47.844;8.966;2023-04-23T07:56:18;1.58;;;1.13;;
58384;SDS011;44185;47.844;8.966;2023-04-23T07:58:44;1.20;;;0.90;;
58384;SDS011;44185;47.844;8.966;2023-04-23T08:01:09;1.30;;;1.17;;
58384;SDS011;44185;47.844;8.966;2023-04-23T08:03:34;2.35;;;1.05;;
58384;SDS011;44185;47.844;8.966;2023-04-23T08:06:00;1.23;;;1.13;;
58384;SDS011;44185;47.844;8.966;2023-04-23T08:08:25;3.70;;;1.50;;
58384;SDS011;44185;47.844;8.966;2023-04-23T08:10:52;1.52;;;1.38;;
58384;SDS011;44185;47.844;8.966;2023-04-23T08:13:18;1.63;;;1.10;;
58384;SDS011;44185;47.844;8.966;2023-04-23T08:15:43;1.10;;;0.98;;
58384;SDS011;44185;47.844;8.966;2023-04-23T08:18:09;1.27;;;1.10;;
58384;SDS011;44185;47.844;8.966;2023-04-23T08:20:34;1.95;;;1.30;;
58384;SDS011;44185;47.844;8.966;2023-04-23T08:23:00;1.55;;;1.20;;
58384;SDS011;44185;47.844;8.966;2023-04-23T08:25:25;2.53;;;1.40;;
58384;SDS011;44185;47.844;8.966;2023-04-23T08:27:52;1.90;;;1.20;;
58384;SDS011;44185;47.844;8.966;2023-04-23T08:30:17;2.00;;;1.15;;
58384;SDS011;44185;47.844;8.966;2023-04-23T08:32:43;1.67;;;1.10;;
58384;SDS011;44185;47.844;8.966;2023-04-23T08:35:08;1.38;;;0.98;;
58384;SDS011;44185;47.844;8.966;2023-04-23T08:37:34;1.95;;;1.05;;
58384;SDS011;44185;47.844;8.966;2023-04-23T08:39:59;1.13;;;1.08;;
58384;SDS011;44185;47.844;8.966;2023-04-23T08:42:26;1.38;;;1.27;;
58384;SDS011;44185;47.844;8.966;2023-04-23T08:45:02;1.00;;;1.00;;
58384;SDS011;44185;47.844;8.966;2023-04-23T08:47:29;0.80;;;0.80;;
58384;SDS011;44185;47.844;8.966;2023-04-23T08:49:56;1.13;;;1.02;;
58384;SDS011;44185;47.844;8.966;2023-04-23T08:52:24;1.50;;;1.40;;
58384;SDS011;44185;47.844;8.966;2023-04-23T08:54:51;1.80;;;0.85;;
58384;SDS011;44185;47.844;8.966;2023-04-23T08:57:17;1.13;;;1.10;;
58384;SDS011;44185;47.844;8.966;2023-04-23T08:59:43;1.20;;;1.10;;
58384;SDS011;44185;47.844;8.966;2023-04-23T09:02:11;2.50;;;1.33;;
58384;SDS011;44185;47.844;8.966;2023-04-23T09:04:37;1.92;;;1.38;;
58384;SDS011;44185;47.844;8.966;2023-04-23T09:07:03;2.05;;;1.40;;
58384;SDS011;44185;47.844;8.966;2023-04-23T09:09:28;2.65;;;1.63;;
58384;SDS011;44185;47.844;8.966;2023-04-23T09:11:55;1.98;;;1.77;;
58384;SDS011;44185;47.844;8.966;2023-04-23T09:14:21;2.97;;;1.92;;
58384;SDS011;44185;47.844;8.966;2023-04-23T09:16:47;3.58;;;2.10;;
58384;SDS011;44185;47.844;8.966;2023-04-23T09:19:13;3.65;;;2.50;;
58384;SDS011;44185;47.844;8.966;2023-04-23T09:21:39;3.33;;;2.33;;
58384;SDS011;44185;47.844;8.966;2023-04-23T09:24:05;4.03;;;2.20;;
58384;SDS011;44185;47.844;8.966;2023-04-23T09:26:30;3.20;;;2.08;;
58384;SDS011;44185;47.844;8.966;2023-04-23T09:28:56;4.00;;;2.20;;
58384;SDS011;44185;47.844;8.966;2023-04-23T09:31:21;2.88;;;2.00;;
58384;SDS011;44185;47.844;8.966;2023-04-23T09:33:50;3.20;;;1.90;;
58384;SDS011;44185;47.844;8.966;2023-04-23T09:36:20;2.70;;;2.10;;
58384;SDS011;44185;47.844;8.966;2023-04-23T09:38:46;3.27;;;1.87;;
58384;SDS011;44185;47.844;8.966;2023-04-23T09:41:21;1.77;;;1.60;;
58384;SDS011;44185;47.844;8.966;2023-04-23T09:43:47;2.28;;;1.80;;
58384;SDS011;44185;47.844;8.966;2023-04-23T09:46:12;3.30;;;2.33;;
58384;SDS011;44185;47.844;8.966;2023-04-23T09:48:41;2.63;;;2.13;;
58384;SDS011;44185;47.844;8.966;2023-04-23T09:51:06;5.72;;;2.25;;
58384;SDS011;44185;47.844;8.966;2023-04-23T09:53:39;3.90;;;2.63;;
58384;SDS011;44185;47.844;8.966;2023-04-23T09:56:06;3.30;;;2.42;;
58384;SDS011;44185;47.844;8.966;2023-04-23T09:58:31;3.75;;;2.22;;
58384;SDS011;44185;47.844;8.966;2023-04-23T10:00:58;2.85;;;2.13;;
58384;SDS011;44185;47.844;8.966;2023-04-23T10:03:30;4.90;;;2.30;;
58384;SDS011;44185;47.844;8.966;2023-04-23T10:05:56;3.08;;;2.20;;
58384;SDS011;44185;47.844;8.966;2023-04-23T10:08:22;2.72;;;2.42;;
58384;SDS011;44185;47.844;8.966;2023-04-23T10:10:50;4.45;;;2.22;;
58384;SDS011;44185;47.844;8.966;2023-04-23T10:13:15;3.50;;;2.50;;
58384;SDS011;44185;47.844;8.966;2023-04-23T10:15:41;3.70;;;2.40;;
58384;SDS011;44185;47.844;8.966;2023-04-23T10:18:10;2.33;;;2.13;;
58384;SDS011;44185;47.844;8.966;2023-04-23T10:20:36;4.10;;;2.53;;
58384;SDS011;44185;47.844;8.966;2023-04-23T10:23:03;3.95;;;2.75;;
58384;SDS011;44185;47.844;8.966;2023-04-23T10:25:30;3.17;;;2.28;;
58384;SDS011;44185;47.844;8.966;2023-04-23T10:27:57;3.83;;;2.53;;
58384;SDS011;44185;47.844;8.966;2023-04-23T10:30:27;3.83;;;2.65;;
58384;SDS011;44185;47.844;8.966;2023-04-23T10:32:53;4.40;;;2.50;;
58384;SDS011;44185;47.844;8.966;2023-04-23T10:35:20;2.97;;;2.10;;
58384;SDS011;44185;47.844;8.966;2023-04-23T10:37:46;3.20;;;2.42;;
58384;SDS011;44185;47.844;8.966;2023-04-23T10:40:13;4.70;;;2.60;;
58384;SDS011;44185;47.844;8.966;2023-04-23T10:42:43;5.30;;;2.20;;
58384;SDS011;44185;47.844;8.966;2023-04-23T10:45:14;1.77;;;1.65;;
58384;SDS011;44185;47.844;8.966;2023-04-23T10:47:41;2.88;;;2.15;;
58384;SDS011;44185;47.844;8.966;2023-04-23T10:50:16;2.58;;;2.38;;
58384;SDS011;44185;47.844;8.966;2023-04-23T10:52:43;4.25;;;2.38;;
58384;SDS011;44185;47.844;8.966;2023-04-23T10:55:15;3.90;;;2.40;;
58384;SDS011;44185;47.844;8.966;2023-04-23T10:57:53;2.28;;;2.08;;
58384;SDS011;44185;47.844;8.966;2023-04-23T11:00:21;2.53;;;2.10;;
58384;SDS011;44185;47.844;8.966;2023-04-23T11:02:47;2.55;;;2.00;;
58384;SDS011;44185;47.844;8.966;2023-04-23T11:05:15;2.67;;;2.40;;
58384;SDS011;44185;47.844;8.966;2023-04-23T11:07:40;4.30;;;2.40;;
58384;SDS011;44185;47.844;8.966;2023-04-23T11:10:10;2.38;;;2.17;;
58384;SDS011;44185;47.844;8.966;2023-04-23T11:12:37;4.68;;;2.10;;
58384;SDS011;44185;47.844;8.966;2023-04-23T11:15:10;2.85;;;2.33;;
58384;SDS011;44185;47.844;8.966;2023-04-23T11:20:25;1.70;;;1.60;;
58384;SDS011;44185;47.844;8.966;2023-04-23T11:22:51;3.35;;;1.85;;
58384;SDS011;44185;47.844;8.966;2023-04-23T11:25:18;3.50;;;2.42;;
58384;SDS011;44185;47.844;8.966;2023-04-23T11:27:45;4.53;;;1.95;;
58384;SDS011;44185;47.844;8.966;2023-04-23T11:30:13;4.13;;;2.40;;
58384;SDS011;44185;47.844;8.966;2023-04-23T11:32:39;2.97;;;2.13;;
58384;SDS011;44185;47.844;8.966;2023-04-23T11:35:07;4.13;;;2.20;;
58384;SDS011;44185;47.844;8.966;2023-04-23T11:37:37;4.35;;;2.42;;
58384;SDS011;44185;47.844;8.966;2023-04-23T11:40:04;4.00;;;2.20;;
58384;SDS011;44185;47.844;8.966;2023-04-23T11:42:31;3.38;;;2.25;;
58384;SDS011;44185;47.844;8.966;2023-04-23T11:44:56;2.65;;;2.30;;
58384;SDS011;44185;47.844;8.966;2023-04-23T11:47:22;3.72;;;2.40;;
58384;SDS011;44185;47.844;8.966;2023-04-23T11:49:50;4.07;;;2.38;;
58384;SDS011;44185;47.844;8.966;2023-04-23T11:52:17;2.30;;;1.98;;
58384;SDS011;44185;47.844;8.966;2023-04-23T11:54:42;3.50;;;2.30;;
58384;SDS011;44185;47.844;8.966;2023-04-23T11:57:08;5.35;;;2.10;;
58384;SDS011;44185;47.844;8.966;2023-04-23T11:59:34;4.70;;;2.38;;
58384;SDS011;44185;47.844;8.966;2023-04-23T12:01:59;2.65;;;2.00;;
58384;SDS011;44185;47.844;8.966;2023-04-23T12:04:25;3.20;;;2.10;;
58384;SDS011;44185;47.844;8.966;2023-04-23T12:06:52;2.45;;;2.22;;
58384;SDS011;44185;47.844;8.966;2023-04-23T12:09:21;3.88;;;2.20;;
58384;SDS011;44185;47.844;8.966;2023-04-23T12:11:48;2.30;;;2.07;;
58384;SDS011;44185;47.844;8.966;2023-04-23T12:14:13;3.97;;;2.38;;
58384;SDS011;44185;47.844;8.966;2023-04-23T12:16:39;2.50;;;2.22;;
58384;SDS011;44185;47.844;8.966;2023-04-23T12:19:06;2.35;;;2.15;;
58384;SDS011;44185;47.844;8.966;2023-04-23T12:21:32;2.10;;;2.00;;
58384;SDS011;44185;47.844;8.966;2023-04-23T12:23:58;4.30;;;2.17;;
58384;SDS011;44185;47.844;8.966;2023-04-23T12:26:25;4.13;;;2.40;;
58384;SDS011;44185;47.844;8.966;2023-04-23T12:28:50;2.13;;;2.00;;
58384;SDS011;44185;47.844;8.966;2023-04-23T12:31:20;3.63;;;2.20;;
58384;SDS011;44185;47.844;8.966;2023-04-23T12:33:51;3.47;;;2.50;;
58384;SDS011;44185;47.844;8.966;2023-04-23T12:36:20;2.75;;;2.13;;
58384;SDS011;44185;47.844;8.966;2023-04-23T12:38:51;2.38;;;2.17;;
58384;SDS011;44185;47.844;8.966;2023-04-23T12:41:16;2.05;;;1.88;;
58384;SDS011;44185;47.844;8.966;2023-04-23T12:43:43;2.30;;;2.10;;
58384;SDS011;44185;47.844;8.966;2023-04-23T12:46:08;3.17;;;2.03;;
58384;SDS011;44185;47.844;8.966;2023-04-23T12:48:34;2.30;;;2.10;;
58384;SDS011;44185;47.844;8.966;2023-04-23T12:50:59;2.13;;;1.98;;
58384;SDS011;44185;47.844;8.966;2023-04-23T12:53:25;2.67;;;1.90;;
58384;SDS011;44185;47.844;8.966;2023-04-23T12:55:50;4.78;;;2.08;;
58384;SDS011;44185;47.844;8.966;2023-04-23T12:58:15;2.20;;;2.00;;
58384;SDS011;44185;47.844;8.966;2023-04-23T13:00:42;2.30;;;1.75;;
58384;SDS011;44185;47.844;8.966;2023-04-23T13:03:08;4.28;;;1.90;;
58384;SDS011;44185;47.844;8.966;2023-04-23T13:05:34;2.67;;;2.00;;
58384;SDS011;44185;47.844;8.966;2023-04-23T13:07:59;2.30;;;2.10;;
58384;SDS011;44185;47.844;8.966;2023-04-23T13:10:24;2.08;;;1.80;;
58384;SDS011;44185;47.844;8.966;2023-04-23T13:12:50;3.05;;;1.88;;
58384;SDS011;44185;47.844;8.966;2023-04-23T13:15:15;2.20;;;2.00;;
58384;SDS011;44185;47.844;8.966;2023-04-23T13:17:43;1.92;;;1.73;;
58384;SDS011;44185;47.844;8.966;2023-04-23T13:20:09;1.98;;;1.85;;
58384;SDS011;44185;47.844;8.966;2023-04-23T13:22:35;1.70;;;1.60;;
58384;SDS011;44185;47.844;8.966;2023-04-23T13:25:00;3.10;;;2.10;;
58384;SDS011;44185;47.844;8.966;2023-04-23T13:27:26;2.95;;;2.10;;
58384;SDS011;44185;47.844;8.966;2023-04-23T13:29:53;2.67;;;2.00;;
58384;SDS011;44185;47.844;8.966;2023-04-23T13:32:19;1.98;;;1.70;;
58384;SDS011;44185;47.844;8.966;2023-04-23T13:34:46;2.55;;;2.35;;
58384;SDS011;44185;47.844;8.966;2023-04-23T13:37:11;5.10;;;2.25;;
58384;SDS011;44185;47.844;8.966;2023-04-23T13:39:37;2.60;;;2.08;;
58384;SDS011;44185;47.844;8.966;2023-04-23T13:42:03;1.75;;;1.65;;
58384;SDS011;44185;47.844;8.966;2023-04-23T13:44:28;2.05;;;1.95;;
58384;SDS011;44185;47.844;8.966;2023-04-23T13:46:54;3.10;;;1.70;;
58384;SDS011;44185;47.844;8.966;2023-04-23T13:49:19;3.88;;;2.20;;
58384;SDS011;44185;47.844;8.966;2023-04-23T13:51:46;1.98;;;1.80;;
58384;SDS011;44185;47.844;8.966;2023-04-23T13:54:11;2.45;;;1.67;;
58384;SDS011;44185;47.844;8.966;2023-04-23T13:56:37;3.08;;;1.92;;
58384;SDS011;44185;47.844;8.966;2023-04-23T13:59:02;2.10;;;1.70;;
58384;SDS011;44185;47.844;8.966;2023-04-23T14:01:28;3.85;;;2.10;;
58384;SDS011;44185;47.844;8.966;2023-04-23T14:03:53;2.85;;;1.90;;
58384;SDS011;44185;47.844;8.966;2023-04-23T14:06:19;3.38;;;2.20;;
58384;SDS011;44185;47.844;8.966;2023-04-23T14:08:45;2.05;;;1.83;;
58384;SDS011;44185;47.844;8.966;2023-04-23T14:11:11;3.92;;;2.22;;
58384;SDS011;44185;47.844;8.966;2023-04-23T14:13:36;3.42;;;2.10;;
58384;SDS011;44185;47.844;8.966;2023-04-23T14:16:02;1.98;;;1.88;;
58384;SDS011;44185;47.844;8.966;2023-04-23T14:18:27;1.55;;;1.45;;
58384;SDS011;44185;47.844;8.966;2023-04-23T14:20:53;2.25;;;2.05;;
58384;SDS011;44185;47.844;8.966;2023-04-23T14:26:20;3.63;;;2.22;;
58384;SDS011;44185;47.844;8.966;2023-04-23T14:28:51;4.35;;;2.10;;
58384;SDS011;44185;47.844;8.966;2023-04-23T14:31:20;2.10;;;1.90;;
58384;SDS011;44185;47.844;8.966;2023-04-23T14:33:45;2.28;;;1.92;;
58384;SDS011;44185;47.844;8.966;2023-04-23T14:36:11;2.92;;;2.05;;
58384;SDS011;44185;47.844;8.966;2023-04-23T14:38:36;2.35;;;1.75;;
58384;SDS011;44185;47.844;8.966;2023-04-23T14:41:03;3.30;;;1.90;;
58384;SDS011;44185;47.844;8.966;2023-04-23T14:43:28;2.28;;;2.08;;
58384;SDS011;44185;47.844;8.966;2023-04-23T14:45:54;3.25;;;2.05;;
58384;SDS011;44185;47.844;8.966;2023-04-23T14:48:19;3.53;;;2.00;;